Ely, Nevada Weather observations

Data are for observation ending at time listed.
 Day   Time    Ave.   Ave.  Ave.  Vector   Max.   Stn.    Total    Solar   Ave.  
  of    of     Air    Rel.  Wind   Wind    Wind   Baro.  Precip.   Rad.    Soil  
Year   Day     Temp.  Hum.  Speed  Dir.    Gust   Pres.                    Temp. 
2016   (PST)    F      %     mph   deg.    mph     mb.     in.     W/m2     F   
------------------------------------------------------------------------------
 241    1:40   50.6    63    3.0   112      5.6   813.9    0.00       0    66.8
 241    1:50   50.8    63    4.1   120      6.4   814.0    0.00       0    66.6
 241    2:00   50.7    62    4.8   129      7.8   814.0    0.00       1    66.3
 241    2:10   49.7    62    5.5   128      7.9   814.0    0.00       0    66.1
 241    2:20   49.6    62    4.2   121      6.0   814.1    0.00       0    65.9
 241    2:30   50.1    64    5.9   114      7.7   814.2    0.00       0    65.7
 241    2:40   50.4    64    5.2   120      7.7   814.3    0.00       0    65.5
 241    2:50   50.8    64    4.4   122      7.1   814.3    0.00       0    65.4
 241    3:00   51.0    64    3.6   150      5.9   814.3    0.00       0    65.2
 241    3:10   48.8    66    6.1   150      7.5   814.3    0.00       0    65.1
 241    3:20   47.6    68    6.4   154      8.7   814.4    0.00       0    64.9
 241    3:30   47.3    68    5.6   160      8.4   814.4    0.00       1    64.7
 241    3:40   46.0    70    7.0   148      9.9   814.3    0.00       1    64.5
 241    3:50   45.3    70    6.6   147      9.6   814.4    0.00       1    64.3
 241    4:00   45.4    72    5.4   170      7.4   814.5    0.00       1    64.0
 241    4:10   46.1    73    6.2   166      8.4   814.5    0.00       1    63.8
 241    4:20   46.2    73    7.7   142     10.3   814.6    0.00       0    63.6
 241    4:30   45.1    73    7.2   135      8.8   814.7    0.00       0    63.4
 241    4:40   44.8    73    6.6   130      8.6   814.7    0.00       1    63.2
 241    4:50   45.1    73    6.8   138      7.5   814.8    0.00       2    63.0
 241    5:00   45.4    72    5.2   168      6.9   814.8    0.00       6    62.8
 241    5:10   44.0    74    6.2   183      8.0   814.9    0.00       7    62.6
 241    5:20   45.4    74    7.2   155      8.9   815.1    0.00       7    62.4
 241    5:30   44.3    75    7.1   152      9.4   815.1    0.00      18    62.2
 241    5:40   44.6    74    6.6   151      8.2   815.2    0.00      20    62.1
 241    5:50   45.6    74    5.8   155      7.4   815.3    0.00      77    62.0
 241    6:00   47.6    71    5.8   162      8.0   815.4    0.00     137    61.9
 241    6:10   48.3    69    6.1   167      8.2   815.5    0.00     172    61.8
 241    6:20   49.4    67    6.8   150      9.1   815.6    0.00     208    61.7
 241    6:30   51.0    64    8.4   137     11.5   815.6    0.00     246    61.7
 241    6:40   51.3    63   10.4   145     12.9   815.6    0.00     284    61.9
 241    6:50   52.1    62    7.8   158     10.9   815.6    0.00     323    62.1
 241    7:00   54.5    58    7.4   157     10.6   815.6    0.00     361    62.2
 241    7:10   56.8    55    7.3   164     10.6   815.7    0.00     397    62.4
 241    7:20   59.0    52    6.1   179      8.6   815.6    0.00     430    62.7
 241    7:30   60.2    50    6.6   192      8.4   815.7    0.00     466    62.9
 241    7:40   61.6    48    6.4   164      9.9   815.7    0.00     502    63.2
 241    7:50   62.7    47    5.4   173      9.4   815.7    0.00     538    63.6
 241    8:00   65.4    38    4.4   114      7.7   815.7    0.00     572    64.0
 241    8:10   66.4    36    4.3   129      6.8   815.7    0.00     605    64.4
 241    8:20   68.0    34    3.7   120      6.9   815.6    0.00     636    64.8
 241    8:30   69.3    32    2.1   118      4.3   815.6    0.00     667    65.3
 241    8:40   69.9    32    2.3   158      4.3   815.6    0.00     697    65.7
 241    8:50   71.7    31    0.1   359      1.3   815.7    0.00     724    66.1
 241    9:00   72.4    30    2.0   140      6.2   815.7    0.00     751    66.6
 241    9:10   72.9    30    0.6    22      3.3   815.7    0.00     779    67.1
 241    9:20   73.6    29    0.7   302      2.9   815.7    0.00     808    67.6
 241    9:30   75.9    26    1.5    28      4.3   815.6    0.00     832    68.1
 241    9:40   74.6    27    3.1   332      5.5   815.6    0.00     856    68.6
 241    9:50   75.3    26    2.9   319      7.1   815.5    0.00     880    69.2
 241   10:00   76.4    23    3.9   328      9.1   815.3    0.00     899    69.8
 241   10:10   77.1    22    3.7   315      9.1   815.3    0.00     917    70.6
 241   10:20   78.3    18    6.4   295     11.9   815.2    0.00     935    71.5
 241   10:30   78.3    17    5.4   268      9.5   815.2    0.00     948    72.3
 241   10:40   78.4    17    6.8   348     13.0   815.1    0.00     958    72.8
 241   10:50   79.0    15    7.3   343     14.1   815.0    0.00     972    73.3
 241   11:00   79.2    14    8.1   328     14.2   815.0    0.00     982    73.8
 241   11:10   79.4    14    5.7   336     15.4   814.9    0.00     993    74.5
 241   11:20   80.4    13    7.2   342     16.4   814.9    0.00    1000    75.2
 241   11:30   80.1    12    9.1     8     15.1   814.8    0.00    1007    75.8
 241   11:40   80.3    12    7.0    26     12.9   814.7    0.00    1008    76.3
 241   11:50   81.3    12    5.5    13     13.1   814.7    0.00    1008    76.8
 241   12:00   80.9    12    5.7   336     13.1   814.7    0.00    1009    77.4
 241   12:10   81.3    12    6.2    30     13.2   814.7    0.00    1009    78.1
 241   12:20   80.9    12    8.8     6     15.9   814.7    0.00    1009    78.6
 241   12:30   80.9    12    5.0   354     10.5   814.7    0.00     997    78.9
 241   12:40   81.9    11    1.8    89      5.0   814.6    0.00     990    78.9
 241   12:50   82.1    11    4.2    86     11.2   814.5    0.00     977    79.2
 241   13:00   82.8    11    3.0   127      9.9   814.4    0.00     967    79.9
 241   13:10   83.2    10    5.2   348     12.6   814.3    0.00     957    80.9
 241   13:20   83.4    10    9.4   325     15.6   814.3    0.00     943    81.6
 241   13:30   83.5    10    5.1   324     12.1   814.2    0.00     928    82.4
 241   13:40   83.7    10    7.3   325     16.4   814.0    0.00     904    83.1
 241   13:50   83.1    10    5.8   344     10.6   813.9    0.00     593    83.5
 241   14:00   83.0    10    6.4     6     11.3   813.8    0.00     814    83.4
 241   14:10   83.2    10    5.1    24      9.6   813.8    0.00     839    83.4
 241   14:20   83.7    10    4.6    24     10.5   813.8    0.00     810    83.5
 241   14:30   84.2     9    4.6   341     11.7   813.7    0.00     779    83.6
 241   14:40   84.9     9    4.9   304     14.6   813.6    0.00     752    83.9
 241   14:50   84.5     9    8.2   335     12.7   813.6    0.00     717    84.1
 241   15:00   83.8     9    5.2    14     12.0   813.5    0.00     686    84.2
 241   15:10   85.0     9    4.6   250     11.5   813.5    0.00     666    84.2
 241   15:20   84.8     9    7.1   271     11.6   813.4    0.00     631    84.1
 241   15:30   84.2     9    8.4   322     14.2   813.4    0.00     595    83.9
 241   15:40   84.2    10    4.2   332      9.6   813.4    0.00     555    83.6
 241   15:50   84.6     9    3.1   337      7.4   813.4    0.00     515    83.5
 241   16:00   84.6    10    6.3   306     12.6   813.3    0.00     473    83.3
 241   16:10   84.2    11    4.8   338      9.4   813.4    0.00     421    83.1
 241   16:20   83.2    11    3.8   354      6.9   813.4    0.00     113    82.9
 241   16:30   82.3    11    4.7   328      8.0   813.4    0.00      80    82.4
 241   16:40   82.9    11    5.8   314      9.3   813.4    0.00     277    82.0
 241   16:50   83.6    11    4.7   333     10.1   813.5    0.00     297    81.7
 241   17:00   83.2    11    6.9   338      9.7   813.5    0.00     258    81.7
 241   17:10   82.8    11    6.8   332      9.7   813.5    0.00     173    81.6
 241   17:20   81.6    12    6.6   327      9.4   813.4    0.00      40    81.4
 241   17:30   81.0    12    7.1   329      8.8   813.5    0.00      36    81.1
 241   17:40   80.0    12    6.7   325      8.3   813.5    0.00      55    80.6
 241   17:50   80.2    12    5.1   337      6.2   813.5    0.00      64    80.3
 241   18:00   79.9    12    4.6   351      5.7   813.6    0.00      36    80.1
 241   18:10   79.0    12    4.1   352      5.6   813.7    0.00      12    79.8
 241   18:20   77.8    13    5.3     8      6.3   813.7    0.00       7    79.4
 241   18:30   75.5    14    5.0    25      6.1   813.8    0.00       5    79.0
 241   18:40   73.6    15    2.4    64      4.2   813.9    0.00       0    78.6
 241   18:50   72.8    15    2.5    62      4.0   814.0    0.00       0    78.1
 241   19:00   71.5    16    3.8   174      6.0   814.1    0.00       0    77.7
 241   19:10   70.0    19    3.6   172      5.4   814.3    0.00       0    77.3
 241   19:20   65.7    21    7.1   154     10.7   814.4    0.00       0    76.9
 241   19:30   64.9    21    7.8   154     10.7   814.6    0.00       0    76.4
 241   19:40   63.6    21   10.4   150     13.8   814.7    0.00       0    76.0
 241   19:50   66.4    19   10.5   156     13.7   814.8    0.00       0    75.6
 241   20:00   64.6    20    9.3   148     13.3   814.9    0.00       0    75.3
 241   20:10   62.6    22   11.0   143     13.1   814.9    0.00       0    74.9
 241   20:20   62.5    22    8.2   152     11.2   815.1    0.00       0    74.6
 241   20:30   63.3    22    7.3   166     11.7   815.0    0.00       0    74.2
 241   20:40   63.2    23    7.4   167     10.2   815.1    0.00       0    73.9
 241   20:50   62.4    23    3.0   110      7.3   815.2    0.00       1    73.6
 241   21:00   62.5    22    4.0   130      7.2   815.2    0.00       0    73.3
 241   21:10   62.5    22    5.6   127      8.3   815.3    0.00       0    73.1
 241   21:20   61.9    22    5.5   152      8.8   815.4    0.00       0    72.8
 241   21:30   61.4    23    8.1   137     11.6   815.5    0.00       0    72.5
 241   21:40   60.4    24   11.3   152     15.4   815.5    0.00       0    72.2
 241   21:50   58.7    25    9.4   149     12.3   815.5    0.00       0    71.9
 241   22:00   57.5    26   10.0   162     14.0   815.5    0.00       0    71.7
 241   22:10   57.1    27    7.3   162     11.1   815.6    0.00       0    71.3
 241   22:20   56.7    28    8.2   163     13.2   815.6    0.00       0    71.1
 241   22:30   57.3    28    8.2   166     12.4   815.7    0.00       0    70.8
 241   22:40   57.1    28    7.8   166     12.7   815.8    0.00       0    70.5
 241   22:50   56.4    29    9.8   162     14.6   815.9    0.00       0    70.2
 241   23:00   57.0    28   11.5   161     17.9   815.9    0.00       0    70.0
 241   23:10   56.8    29   11.4   153     17.8   815.9    0.00       0    69.7
 241   23:20   55.0    31   13.7   152     18.7   815.9    0.00       0    69.5
 241   23:30   55.1    30   10.7   153     14.2   816.0    0.00       0    69.2
 241   23:40   54.4    31   10.6   158     15.6   816.1    0.00       1    68.9
 241   23:50   52.3    34   10.1   154     12.5   816.1    0.00       0    68.7
 242    0:00   52.4    33    8.2   142     11.0   816.1    0.00       1    68.4
 242    0:10   53.8    31    9.4   139     12.2   816.0    0.00       0    68.1
 242    0:20   52.7    32    8.9   146     11.3   816.0    0.00       1    67.9
 242    0:30   52.2    33    8.1   156     11.5   816.2    0.00       1    67.7
 242    0:40   52.1    34    3.7   161      7.4   816.2    0.00       1    67.5
 242    0:50   51.9    34    1.9   137      5.8   816.3    0.00       1    67.3
 242    1:00   52.5    33    5.5   152      9.3   816.3    0.00       1    67.1
 242    1:10   51.7    34    7.9   136     11.0   816.3    0.00       0    66.9
 242    1:20   52.7    33    9.9   155     13.3   816.3    0.00       0    66.7
 242    1:30   55.2    31   10.1   164     13.5   816.2    0.00       0    66.5

Return to Ely, Nevada graphs page.


Western Regional Climate Center,wrcc@dri.edu